sensor_id;sensor_type;location;lat;lon;timestamp;pressure;altitude;pressure_sealevel;temperature;humidity
75521;BME280;64102;48.628;9.002;2023-09-18T00:02:25;95561.03;;;15.92;100.00
75521;BME280;64102;48.628;9.002;2023-09-18T00:04:52;95550.13;;;15.82;100.00
75521;BME280;64102;48.628;9.002;2023-09-18T00:07:17;95552.47;;;15.77;100.00
75521;BME280;64102;48.628;9.002;2023-09-18T00:09:42;95548.34;;;15.68;100.00
75521;BME280;64102;48.628;9.002;2023-09-18T00:12:08;95551.06;;;15.60;100.00
75521;BME280;64102;48.628;9.002;2023-09-18T00:14:35;95538.06;;;15.60;100.00
75521;BME280;64102;48.628;9.002;2023-09-18T00:17:00;95528.63;;;15.59;100.00
75521;BME280;64102;48.628;9.002;2023-09-18T00:19:25;95528.53;;;15.67;100.00
75521;BME280;64102;48.628;9.002;2023-09-18T00:21:51;95529.00;;;15.71;100.00
75521;BME280;64102;48.628;9.002;2023-09-18T00:24:17;95531.09;;;15.82;100.00
75521;BME280;64102;48.628;9.002;2023-09-18T00:26:43;95530.53;;;15.86;100.00
75521;BME280;64102;48.628;9.002;2023-09-18T00:29:08;95530.38;;;15.88;100.00
75521;BME280;64102;48.628;9.002;2023-09-18T00:31:33;95535.63;;;15.94;100.00
75521;BME280;64102;48.628;9.002;2023-09-18T00:33:58;95531.06;;;15.96;100.00
75521;BME280;64102;48.628;9.002;2023-09-18T00:36:24;95531.22;;;15.95;100.00
75521;BME280;64102;48.628;9.002;2023-09-18T00:38:49;95529.59;;;15.94;100.00
75521;BME280;64102;48.628;9.002;2023-09-18T00:41:14;95529.25;;;15.97;100.00
75521;BME280;64102;48.628;9.002;2023-09-18T00:43:40;95532.72;;;16.04;100.00
75521;BME280;64102;48.628;9.002;2023-09-18T00:46:05;95525.25;;;16.16;100.00
75521;BME280;64102;48.628;9.002;2023-09-18T00:48:31;95533.91;;;16.23;100.00
75521;BME280;64102;48.628;9.002;2023-09-18T00:50:56;95532.16;;;16.30;100.00
75521;BME280;64102;48.628;9.002;2023-09-18T00:53:23;95532.78;;;16.32;100.00
75521;BME280;64102;48.628;9.002;2023-09-18T00:55:53;95536.19;;;16.32;100.00
75521;BME280;64102;48.628;9.002;2023-09-18T00:58:19;95533.38;;;16.34;100.00
75521;BME280;64102;48.628;9.002;2023-09-18T01:00:44;95531.03;;;16.39;100.00
75521;BME280;64102;48.628;9.002;2023-09-18T01:03:10;95535.31;;;16.46;100.00
75521;BME280;64102;48.628;9.002;2023-09-18T01:05:36;95528.91;;;16.49;100.00
75521;BME280;64102;48.628;9.002;2023-09-18T01:08:01;95529.16;;;16.54;100.00
75521;BME280;64102;48.628;9.002;2023-09-18T01:10:36;95532.47;;;16.63;100.00
75521;BME280;64102;48.628;9.002;2023-09-18T01:13:12;95519.28;;;16.71;100.00
75521;BME280;64102;48.628;9.002;2023-09-18T01:15:54;95523.34;;;16.80;100.00
75521;BME280;64102;48.628;9.002;2023-09-18T01:18:22;95521.06;;;16.91;100.00
75521;BME280;64102;48.628;9.002;2023-09-18T01:20:48;95500.28;;;17.05;100.00
75521;BME280;64102;48.628;9.002;2023-09-18T01:23:13;95503.06;;;17.03;100.00
75521;BME280;64102;48.628;9.002;2023-09-18T01:25:39;95505.69;;;17.10;100.00
75521;BME280;64102;48.628;9.002;2023-09-18T01:28:04;95522.59;;;17.20;100.00
75521;BME280;64102;48.628;9.002;2023-09-18T01:30:30;95522.63;;;17.68;100.00
75521;BME280;64102;48.628;9.002;2023-09-18T01:32:59;95570.25;;;18.57;100.00
75521;BME280;64102;48.628;9.002;2023-09-18T01:35:26;95597.72;;;19.51;93.42
75521;BME280;64102;48.628;9.002;2023-09-18T01:37:57;95592.22;;;19.79;89.71
75521;BME280;64102;48.628;9.002;2023-09-18T01:40:24;95595.22;;;19.83;87.78
75521;BME280;64102;48.628;9.002;2023-09-18T01:42:50;95585.91;;;19.93;86.52
75521;BME280;64102;48.628;9.002;2023-09-18T01:45:16;95607.84;;;19.99;86.08
75521;BME280;64102;48.628;9.002;2023-09-18T01:47:41;95599.38;;;19.26;100.00
75521;BME280;64102;48.628;9.002;2023-09-18T01:50:07;95548.44;;;18.17;100.00
75521;BME280;64102;48.628;9.002;2023-09-18T01:52:32;95469.59;;;17.54;100.00
75521;BME280;64102;48.628;9.002;2023-09-18T01:55:00;95434.34;;;17.24;100.00
75521;BME280;64102;48.628;9.002;2023-09-18T01:57:25;95433.47;;;17.04;100.00
75521;BME280;64102;48.628;9.002;2023-09-18T01:59:51;95431.19;;;16.87;100.00
75521;BME280;64102;48.628;9.002;2023-09-18T02:02:16;95438.34;;;16.79;100.00
75521;BME280;64102;48.628;9.002;2023-09-18T02:04:41;95441.09;;;16.64;100.00
75521;BME280;64102;48.628;9.002;2023-09-18T02:07:07;95445.41;;;16.57;100.00
75521;BME280;64102;48.628;9.002;2023-09-18T02:09:32;95445.19;;;16.52;100.00
75521;BME280;64102;48.628;9.002;2023-09-18T02:11:58;95450.94;;;16.41;100.00
75521;BME280;64102;48.628;9.002;2023-09-18T02:14:23;95451.31;;;16.38;100.00
75521;BME280;64102;48.628;9.002;2023-09-18T02:16:48;95454.09;;;16.36;100.00
75521;BME280;64102;48.628;9.002;2023-09-18T02:19:14;95456.06;;;16.34;100.00
75521;BME280;64102;48.628;9.002;2023-09-18T02:21:40;95450.44;;;16.31;100.00
75521;BME280;64102;48.628;9.002;2023-09-18T02:24:06;95450.44;;;16.31;100.00
75521;BME280;64102;48.628;9.002;2023-09-18T02:26:32;95467.44;;;16.27;100.00
75521;BME280;64102;48.628;9.002;2023-09-18T02:28:59;95473.63;;;16.26;100.00
75521;BME280;64102;48.628;9.002;2023-09-18T02:31:24;95490.44;;;16.23;100.00
75521;BME280;64102;48.628;9.002;2023-09-18T02:33:50;95497.47;;;16.23;100.00
75521;BME280;64102;48.628;9.002;2023-09-18T02:36:15;95492.97;;;16.17;100.00
75521;BME280;64102;48.628;9.002;2023-09-18T02:38:41;95490.38;;;16.17;100.00
75521;BME280;64102;48.628;9.002;2023-09-18T02:41:06;95491.41;;;16.16;100.00
75521;BME280;64102;48.628;9.002;2023-09-18T02:43:32;95494.13;;;16.29;100.00
75521;BME280;64102;48.628;9.002;2023-09-18T02:45:57;95489.00;;;16.42;100.00
75521;BME280;64102;48.628;9.002;2023-09-18T02:48:23;95487.22;;;16.42;100.00
75521;BME280;64102;48.628;9.002;2023-09-18T02:50:48;95474.97;;;16.43;100.00
75521;BME280;64102;48.628;9.002;2023-09-18T02:53:18;95474.59;;;16.46;100.00
75521;BME280;64102;48.628;9.002;2023-09-18T02:55:44;95468.78;;;16.44;100.00
75521;BME280;64102;48.628;9.002;2023-09-18T02:58:10;95460.94;;;16.37;100.00
75521;BME280;64102;48.628;9.002;2023-09-18T03:00:41;95447.47;;;16.34;100.00
75521;BME280;64102;48.628;9.002;2023-09-18T03:03:07;95448.91;;;16.43;100.00
75521;BME280;64102;48.628;9.002;2023-09-18T03:05:32;95460.09;;;16.58;100.00
75521;BME280;64102;48.628;9.002;2023-09-18T03:07:58;95459.56;;;16.69;100.00
75521;BME280;64102;48.628;9.002;2023-09-18T03:10:23;95455.78;;;16.72;100.00
75521;BME280;64102;48.628;9.002;2023-09-18T03:12:48;95448.75;;;16.72;100.00
75521;BME280;64102;48.628;9.002;2023-09-18T03:15:14;95458.63;;;16.83;100.00
75521;BME280;64102;48.628;9.002;2023-09-18T03:17:39;95452.63;;;16.83;100.00
75521;BME280;64102;48.628;9.002;2023-09-18T03:20:07;95453.06;;;16.86;100.00
75521;BME280;64102;48.628;9.002;2023-09-18T03:22:33;95462.25;;;16.82;100.00
75521;BME280;64102;48.628;9.002;2023-09-18T03:24:58;95455.25;;;16.89;100.00
75521;BME280;64102;48.628;9.002;2023-09-18T03:27:24;95470.94;;;16.96;100.00
75521;BME280;64102;48.628;9.002;2023-09-18T03:29:54;95484.66;;;17.11;100.00
75521;BME280;64102;48.628;9.002;2023-09-18T03:32:19;95504.34;;;17.20;100.00
75521;BME280;64102;48.628;9.002;2023-09-18T03:34:44;95521.03;;;17.26;100.00
75521;BME280;64102;48.628;9.002;2023-09-18T03:37:10;95525.72;;;17.43;100.00
75521;BME280;64102;48.628;9.002;2023-09-18T03:39:35;95548.72;;;17.61;100.00
75521;BME280;64102;48.628;9.002;2023-09-18T03:42:00;95563.19;;;17.70;100.00
75521;BME280;64102;48.628;9.002;2023-09-18T03:44:26;95577.88;;;17.71;100.00
75521;BME280;64102;48.628;9.002;2023-09-18T03:46:51;95581.25;;;17.65;100.00
75521;BME280;64102;48.628;9.002;2023-09-18T03:49:17;95603.44;;;17.55;100.00
75521;BME280;64102;48.628;9.002;2023-09-18T03:51:42;95590.38;;;17.48;100.00
75521;BME280;64102;48.628;9.002;2023-09-18T03:54:08;95576.91;;;17.51;100.00
75521;BME280;64102;48.628;9.002;2023-09-18T03:56:33;95575.19;;;17.58;100.00
75521;BME280;64102;48.628;9.002;2023-09-18T03:58:59;95559.25;;;17.87;100.00
75521;BME280;64102;48.628;9.002;2023-09-18T04:01:26;95562.50;;;18.09;100.00
75521;BME280;64102;48.628;9.002;2023-09-18T04:03:52;95554.09;;;18.20;100.00
75521;BME280;64102;48.628;9.002;2023-09-18T04:06:20;95546.47;;;18.19;100.00
75521;BME280;64102;48.628;9.002;2023-09-18T04:08:46;95521.13;;;18.26;100.00
75521;BME280;64102;48.628;9.002;2023-09-18T04:11:11;95514.91;;;18.27;100.00
75521;BME280;64102;48.628;9.002;2023-09-18T04:13:36;95507.09;;;18.27;100.00
75521;BME280;64102;48.628;9.002;2023-09-18T04:16:04;95509.28;;;18.23;100.00
75521;BME280;64102;48.628;9.002;2023-09-18T04:18:29;95504.25;;;18.22;100.00
75521;BME280;64102;48.628;9.002;2023-09-18T04:20:54;95487.38;;;18.18;100.00
75521;BME280;64102;48.628;9.002;2023-09-18T04:23:27;95471.50;;;18.13;100.00
75521;BME280;64102;48.628;9.002;2023-09-18T04:25:53;95470.53;;;18.07;100.00
75521;BME280;64102;48.628;9.002;2023-09-18T04:28:20;95459.88;;;18.02;100.00
75521;BME280;64102;48.628;9.002;2023-09-18T04:30:46;95465.88;;;17.96;100.00
75521;BME280;64102;48.628;9.002;2023-09-18T04:33:15;95456.84;;;17.92;100.00
75521;BME280;64102;48.628;9.002;2023-09-18T04:35:41;95456.44;;;17.88;100.00
75521;BME280;64102;48.628;9.002;2023-09-18T04:38:07;95454.41;;;17.77;100.00
75521;BME280;64102;48.628;9.002;2023-09-18T04:40:36;95451.16;;;17.69;100.00
75521;BME280;64102;48.628;9.002;2023-09-18T04:43:02;95443.53;;;17.61;100.00
75521;BME280;64102;48.628;9.002;2023-09-18T04:45:30;95454.13;;;17.53;100.00
75521;BME280;64102;48.628;9.002;2023-09-18T04:47:55;95455.50;;;17.55;100.00
75521;BME280;64102;48.628;9.002;2023-09-18T04:50:21;95443.88;;;17.51;100.00
75521;BME280;64102;48.628;9.002;2023-09-18T04:52:47;95445.09;;;17.49;100.00
75521;BME280;64102;48.628;9.002;2023-09-18T04:55:13;95462.72;;;17.46;100.00
75521;BME280;64102;48.628;9.002;2023-09-18T04:57:38;95468.16;;;17.45;100.00
75521;BME280;64102;48.628;9.002;2023-09-18T05:00:04;95469.16;;;17.44;100.00
75521;BME280;64102;48.628;9.002;2023-09-18T05:02:38;95467.75;;;17.48;100.00
75521;BME280;64102;48.628;9.002;2023-09-18T05:05:04;95463.00;;;17.58;100.00
75521;BME280;64102;48.628;9.002;2023-09-18T05:07:29;95461.13;;;17.52;100.00
75521;BME280;64102;48.628;9.002;2023-09-18T05:09:55;95470.00;;;17.58;100.00
75521;BME280;64102;48.628;9.002;2023-09-18T05:12:20;95476.97;;;17.51;100.00
75521;BME280;64102;48.628;9.002;2023-09-18T05:14:47;95494.84;;;17.47;100.00
75521;BME280;64102;48.628;9.002;2023-09-18T05:17:16;95507.28;;;17.45;100.00
75521;BME280;64102;48.628;9.002;2023-09-18T05:19:45;95480.97;;;17.46;100.00
75521;BME280;64102;48.628;9.002;2023-09-18T05:22:11;95478.78;;;17.50;100.00
75521;BME280;64102;48.628;9.002;2023-09-18T05:24:39;95471.56;;;17.52;100.00
75521;BME280;64102;48.628;9.002;2023-09-18T05:27:05;95488.22;;;17.51;100.00
75521;BME280;64102;48.628;9.002;2023-09-18T05:29:32;95479.81;;;17.49;100.00
75521;BME280;64102;48.628;9.002;2023-09-18T05:31:58;95489.63;;;17.47;100.00
75521;BME280;64102;48.628;9.002;2023-09-18T05:34:23;95493.03;;;17.48;100.00
75521;BME280;64102;48.628;9.002;2023-09-18T05:36:48;95498.25;;;17.48;100.00
75521;BME280;64102;48.628;9.002;2023-09-18T05:39:15;95489.84;;;17.52;100.00
75521;BME280;64102;48.628;9.002;2023-09-18T05:41:40;95486.03;;;17.55;100.00
75521;BME280;64102;48.628;9.002;2023-09-18T05:44:06;95484.84;;;17.57;100.00
75521;BME280;64102;48.628;9.002;2023-09-18T05:46:34;95493.47;;;17.58;100.00
75521;BME280;64102;48.628;9.002;2023-09-18T05:49:00;95482.66;;;17.61;100.00
75521;BME280;64102;48.628;9.002;2023-09-18T05:51:26;95487.28;;;17.59;100.00
75521;BME280;64102;48.628;9.002;2023-09-18T05:53:51;95482.84;;;17.59;100.00
75521;BME280;64102;48.628;9.002;2023-09-18T05:56:16;95493.28;;;17.59;100.00
75521;BME280;64102;48.628;9.002;2023-09-18T05:58:43;95490.50;;;17.61;100.00
75521;BME280;64102;48.628;9.002;2023-09-18T06:01:08;95481.84;;;17.60;100.00
75521;BME280;64102;48.628;9.002;2023-09-18T06:03:34;95477.00;;;17.57;100.00
75521;BME280;64102;48.628;9.002;2023-09-18T06:06:01;95473.59;;;17.57;100.00
75521;BME280;64102;48.628;9.002;2023-09-18T06:08:27;95481.28;;;17.58;100.00
75521;BME280;64102;48.628;9.002;2023-09-18T06:10:53;95483.22;;;17.56;100.00
75521;BME280;64102;48.628;9.002;2023-09-18T06:13:20;95475.22;;;17.58;100.00
75521;BME280;64102;48.628;9.002;2023-09-18T06:15:45;95473.84;;;17.62;100.00
75521;BME280;64102;48.628;9.002;2023-09-18T06:18:11;95483.06;;;17.64;100.00
75521;BME280;64102;48.628;9.002;2023-09-18T06:20:36;95480.88;;;17.61;100.00
75521;BME280;64102;48.628;9.002;2023-09-18T06:23:02;95488.88;;;17.60;100.00
75521;BME280;64102;48.628;9.002;2023-09-18T06:25:29;95500.50;;;17.57;100.00
75521;BME280;64102;48.628;9.002;2023-09-18T06:27:56;95493.66;;;17.56;100.00
75521;BME280;64102;48.628;9.002;2023-09-18T06:30:21;95492.28;;;17.60;100.00
75521;BME280;64102;48.628;9.002;2023-09-18T06:32:47;95499.28;;;17.53;100.00
75521;BME280;64102;48.628;9.002;2023-09-18T06:35:13;95501.66;;;17.48;100.00
75521;BME280;64102;48.628;9.002;2023-09-18T06:37:38;95508.06;;;17.45;100.00
75521;BME280;64102;48.628;9.002;2023-09-18T06:40:03;95511.69;;;17.44;100.00
75521;BME280;64102;48.628;9.002;2023-09-18T06:42:30;95514.91;;;17.46;100.00
75521;BME280;64102;48.628;9.002;2023-09-18T06:44:55;95513.09;;;17.47;100.00
75521;BME280;64102;48.628;9.002;2023-09-18T06:47:21;95520.34;;;17.52;100.00
75521;BME280;64102;48.628;9.002;2023-09-18T06:49:46;95516.16;;;17.57;100.00
75521;BME280;64102;48.628;9.002;2023-09-18T06:52:12;95528.25;;;17.65;100.00
75521;BME280;64102;48.628;9.002;2023-09-18T06:54:38;95536.28;;;17.70;100.00
75521;BME280;64102;48.628;9.002;2023-09-18T06:57:03;95533.69;;;17.70;100.00
75521;BME280;64102;48.628;9.002;2023-09-18T06:59:29;95534.91;;;17.74;100.00
75521;BME280;64102;48.628;9.002;2023-09-18T07:01:55;95525.03;;;17.69;100.00
75521;BME280;64102;48.628;9.002;2023-09-18T07:04:21;95525.09;;;17.76;100.00
75521;BME280;64102;48.628;9.002;2023-09-18T07:06:46;95519.25;;;17.74;100.00
75521;BME280;64102;48.628;9.002;2023-09-18T07:09:11;95520.22;;;17.73;100.00
75521;BME280;64102;48.628;9.002;2023-09-18T07:11:37;95521.25;;;17.78;100.00
75521;BME280;64102;48.628;9.002;2023-09-18T07:14:03;95522.25;;;17.77;100.00
75521;BME280;64102;48.628;9.002;2023-09-18T07:16:31;95517.44;;;17.74;100.00
75521;BME280;64102;48.628;9.002;2023-09-18T07:18:57;95507.22;;;17.79;100.00
75521;BME280;64102;48.628;9.002;2023-09-18T07:21:22;95520.06;;;17.87;100.00
75521;BME280;64102;48.628;9.002;2023-09-18T07:23:47;95533.94;;;17.95;100.00
75521;BME280;64102;48.628;9.002;2023-09-18T07:26:13;95541.78;;;17.95;100.00
75521;BME280;64102;48.628;9.002;2023-09-18T07:28:38;95545.78;;;17.90;100.00
75521;BME280;64102;48.628;9.002;2023-09-18T07:31:07;95553.84;;;17.89;100.00
75521;BME280;64102;48.628;9.002;2023-09-18T07:33:34;95560.44;;;17.92;100.00
75521;BME280;64102;48.628;9.002;2023-09-18T07:35:59;95563.69;;;18.00;100.00
75521;BME280;64102;48.628;9.002;2023-09-18T07:38:25;95574.53;;;18.04;100.00
75521;BME280;64102;48.628;9.002;2023-09-18T07:40:50;95585.19;;;18.02;100.00
75521;BME280;64102;48.628;9.002;2023-09-18T07:43:16;95572.13;;;18.02;100.00
75521;BME280;64102;48.628;9.002;2023-09-18T07:45:41;95578.38;;;18.08;100.00
75521;BME280;64102;48.628;9.002;2023-09-18T07:48:07;95575.38;;;18.11;100.00
75521;BME280;64102;48.628;9.002;2023-09-18T07:50:34;95563.97;;;18.25;100.00
75521;BME280;64102;48.628;9.002;2023-09-18T07:53:00;95558.13;;;18.29;100.00
75521;BME280;64102;48.628;9.002;2023-09-18T07:55:25;95566.34;;;18.26;100.00
75521;BME280;64102;48.628;9.002;2023-09-18T07:57:51;95565.75;;;18.24;100.00
75521;BME280;64102;48.628;9.002;2023-09-18T08:00:17;95582.84;;;18.27;100.00
75521;BME280;64102;48.628;9.002;2023-09-18T08:02:43;95589.28;;;18.24;100.00
75521;BME280;64102;48.628;9.002;2023-09-18T08:05:09;95595.69;;;18.28;100.00
75521;BME280;64102;48.628;9.002;2023-09-18T08:07:38;95590.25;;;18.23;100.00
75521;BME280;64102;48.628;9.002;2023-09-18T08:10:04;95601.50;;;18.17;100.00
75521;BME280;64102;48.628;9.002;2023-09-18T08:12:33;95618.78;;;18.12;100.00
75521;BME280;64102;48.628;9.002;2023-09-18T08:14:59;95628.16;;;18.00;100.00
75521;BME280;64102;48.628;9.002;2023-09-18T08:17:25;95635.34;;;17.91;100.00
75521;BME280;64102;48.628;9.002;2023-09-18T08:19:52;95631.50;;;17.80;100.00
75521;BME280;64102;48.628;9.002;2023-09-18T08:22:18;95621.16;;;17.59;100.00
75521;BME280;64102;48.628;9.002;2023-09-18T08:24:46;95626.41;;;17.31;100.00
75521;BME280;64102;48.628;9.002;2023-09-18T08:27:14;95635.06;;;17.11;100.00
75521;BME280;64102;48.628;9.002;2023-09-18T08:29:42;95641.13;;;16.90;100.00
75521;BME280;64102;48.628;9.002;2023-09-18T08:32:08;95646.28;;;16.62;100.00
75521;BME280;64102;48.628;9.002;2023-09-18T08:34:33;95639.03;;;16.43;100.00
75521;BME280;64102;48.628;9.002;2023-09-18T08:36:59;95630.75;;;16.33;100.00
75521;BME280;64102;48.628;9.002;2023-09-18T08:39:24;95620.09;;;16.28;100.00
75521;BME280;64102;48.628;9.002;2023-09-18T08:41:51;95633.09;;;16.28;100.00
75521;BME280;64102;48.628;9.002;2023-09-18T08:44:22;95621.06;;;16.27;100.00
75521;BME280;64102;48.628;9.002;2023-09-18T08:46:50;95625.41;;;16.20;100.00
75521;BME280;64102;48.628;9.002;2023-09-18T08:49:16;95639.16;;;16.13;100.00
75521;BME280;64102;48.628;9.002;2023-09-18T08:51:42;95622.91;;;16.11;100.00
75521;BME280;64102;48.628;9.002;2023-09-18T08:54:08;95630.66;;;16.05;100.00
75521;BME280;64102;48.628;9.002;2023-09-18T08:56:35;95634.22;;;16.04;100.00
75521;BME280;64102;48.628;9.002;2023-09-18T08:59:00;95640.78;;;16.00;100.00
75521;BME280;64102;48.628;9.002;2023-09-18T09:01:26;95632.81;;;16.01;100.00
75521;BME280;64102;48.628;9.002;2023-09-18T09:03:51;95626.41;;;16.04;100.00
75521;BME280;64102;48.628;9.002;2023-09-18T09:06:17;95646.53;;;16.10;100.00
75521;BME280;64102;48.628;9.002;2023-09-18T09:08:42;95650.81;;;16.18;100.00
75521;BME280;64102;48.628;9.002;2023-09-18T09:11:07;95635.81;;;16.20;100.00
75521;BME280;64102;48.628;9.002;2023-09-18T09:13:33;95614.69;;;16.29;100.00
75521;BME280;64102;48.628;9.002;2023-09-18T09:15:59;95603.91;;;16.32;100.00
75521;BME280;64102;48.628;9.002;2023-09-18T09:18:27;95601.56;;;16.37;100.00
75521;BME280;64102;48.628;9.002;2023-09-18T09:20:58;95594.91;;;16.35;100.00
75521;BME280;64102;48.628;9.002;2023-09-18T09:23:26;95628.16;;;16.33;100.00
75521;BME280;64102;48.628;9.002;2023-09-18T09:25:52;95642.31;;;16.30;100.00
75521;BME280;64102;48.628;9.002;2023-09-18T09:28:29;95642.16;;;16.32;100.00
75521;BME280;64102;48.628;9.002;2023-09-18T09:31:02;95642.84;;;16.40;100.00
75521;BME280;64102;48.628;9.002;2023-09-18T09:33:29;95641.34;;;16.31;100.00
75521;BME280;64102;48.628;9.002;2023-09-18T09:35:55;95649.59;;;16.35;100.00
75521;BME280;64102;48.628;9.002;2023-09-18T09:38:28;95646.56;;;16.31;100.00
75521;BME280;64102;48.628;9.002;2023-09-18T09:40:54;95646.38;;;16.33;100.00
75521;BME280;64102;48.628;9.002;2023-09-18T09:43:19;95651.84;;;16.38;100.00
75521;BME280;64102;48.628;9.002;2023-09-18T09:45:46;95631.03;;;16.59;100.00
75521;BME280;64102;48.628;9.002;2023-09-18T09:48:11;95639.91;;;16.65;100.00
75521;BME280;64102;48.628;9.002;2023-09-18T09:50:45;95633.22;;;16.83;100.00
75521;BME280;64102;48.628;9.002;2023-09-18T09:53:12;95635.50;;;16.86;100.00
75521;BME280;64102;48.628;9.002;2023-09-18T09:55:38;95639.69;;;16.87;100.00
75521;BME280;64102;48.628;9.002;2023-09-18T09:58:05;95635.63;;;16.78;100.00
75521;BME280;64102;48.628;9.002;2023-09-18T10:00:39;95627.59;;;16.80;100.00
75521;BME280;64102;48.628;9.002;2023-09-18T10:03:09;95614.16;;;16.76;100.00
75521;BME280;64102;48.628;9.002;2023-09-18T10:05:40;95623.94;;;16.74;100.00
75521;BME280;64102;48.628;9.002;2023-09-18T10:08:08;95608.44;;;16.66;100.00
75521;BME280;64102;48.628;9.002;2023-09-18T10:10:40;95622.28;;;16.67;100.00
75521;BME280;64102;48.628;9.002;2023-09-18T10:13:33;95666.53;;;16.60;100.00
75521;BME280;64102;48.628;9.002;2023-09-18T10:16:01;95684.66;;;16.53;100.00
75521;BME280;64102;48.628;9.002;2023-09-18T10:21:09;95683.50;;;16.56;100.00
75521;BME280;64102;48.628;9.002;2023-09-18T10:26:22;95692.25;;;16.70;100.00
75521;BME280;64102;48.628;9.002;2023-09-18T10:28:55;95706.22;;;16.62;100.00
75521;BME280;64102;48.628;9.002;2023-09-18T10:31:24;95697.16;;;16.58;100.00
75521;BME280;64102;48.628;9.002;2023-09-18T10:33:51;95693.91;;;16.56;100.00
75521;BME280;64102;48.628;9.002;2023-09-18T10:36:19;95685.28;;;16.55;100.00
75521;BME280;64102;48.628;9.002;2023-09-18T10:38:46;95683.84;;;16.53;100.00
75521;BME280;64102;48.628;9.002;2023-09-18T10:41:16;95667.84;;;16.56;100.00
75521;BME280;64102;48.628;9.002;2023-09-18T10:43:45;95671.63;;;16.53;100.00
75521;BME280;64102;48.628;9.002;2023-09-18T10:46:11;95651.16;;;16.50;100.00
75521;BME280;64102;48.628;9.002;2023-09-18T10:48:40;95654.19;;;16.54;100.00
75521;BME280;64102;48.628;9.002;2023-09-18T10:51:07;95643.25;;;16.59;100.00
75521;BME280;64102;48.628;9.002;2023-09-18T10:53:32;95635.56;;;16.72;100.00
75521;BME280;64102;48.628;9.002;2023-09-18T10:55:58;95632.88;;;16.86;100.00
75521;BME280;64102;48.628;9.002;2023-09-18T10:58:24;95643.34;;;16.93;100.00
75521;BME280;64102;48.628;9.002;2023-09-18T11:00:50;95653.59;;;16.94;100.00
75521;BME280;64102;48.628;9.002;2023-09-18T11:03:17;95644.91;;;16.87;100.00
75521;BME280;64102;48.628;9.002;2023-09-18T11:05:46;95650.75;;;16.89;100.00
75521;BME280;64102;48.628;9.002;2023-09-18T11:11:07;95668.44;;;16.94;100.00
75521;BME280;64102;48.628;9.002;2023-09-18T11:13:41;95622.00;;;17.04;100.00
75521;BME280;64102;48.628;9.002;2023-09-18T11:16:34;95592.34;;;17.12;100.00
75521;BME280;64102;48.628;9.002;2023-09-18T11:21:27;95643.50;;;17.13;100.00
75521;BME280;64102;48.628;9.002;2023-09-18T11:26:30;95652.31;;;17.12;100.00
75521;BME280;64102;48.628;9.002;2023-09-18T11:28:59;95669.38;;;17.14;100.00
75521;BME280;64102;48.628;9.002;2023-09-18T11:31:44;95667.25;;;17.24;100.00
75521;BME280;64102;48.628;9.002;2023-09-18T11:36:40;95653.66;;;17.29;100.00
75521;BME280;64102;48.628;9.002;2023-09-18T11:39:05;95653.06;;;17.33;100.00
75521;BME280;64102;48.628;9.002;2023-09-18T11:41:34;95670.59;;;17.39;100.00
75521;BME280;64102;48.628;9.002;2023-09-18T11:46:48;95669.19;;;17.43;100.00
75521;BME280;64102;48.628;9.002;2023-09-18T11:49:19;95671.00;;;17.43;100.00
75521;BME280;64102;48.628;9.002;2023-09-18T11:51:50;95687.88;;;17.47;100.00
75521;BME280;64102;48.628;9.002;2023-09-18T11:54:16;95688.06;;;17.45;100.00
75521;BME280;64102;48.628;9.002;2023-09-18T11:56:42;95703.72;;;17.45;100.00
75521;BME280;64102;48.628;9.002;2023-09-18T11:59:08;95695.31;;;17.50;100.00
75521;BME280;64102;48.628;9.002;2023-09-18T12:01:35;95671.94;;;17.63;100.00
75521;BME280;64102;48.628;9.002;2023-09-18T12:04:05;95662.94;;;17.66;100.00
75521;BME280;64102;48.628;9.002;2023-09-18T12:06:34;95650.94;;;17.71;100.00
75521;BME280;64102;48.628;9.002;2023-09-18T12:09:00;95642.59;;;17.89;100.00
75521;BME280;64102;48.628;9.002;2023-09-18T12:11:26;95648.00;;;17.87;100.00
75521;BME280;64102;48.628;9.002;2023-09-18T12:13:52;95661.22;;;17.86;100.00
75521;BME280;64102;48.628;9.002;2023-09-18T12:16:18;95652.44;;;17.94;100.00
75521;BME280;64102;48.628;9.002;2023-09-18T12:18:50;95656.72;;;18.08;100.00
75521;BME280;64102;48.628;9.002;2023-09-18T12:21:16;95642.66;;;18.09;100.00
75521;BME280;64102;48.628;9.002;2023-09-18T12:23:46;95635.28;;;18.32;100.00
75521;BME280;64102;48.628;9.002;2023-09-18T12:26:15;95635.16;;;18.53;100.00
75521;BME280;64102;48.628;9.002;2023-09-18T12:28:41;95626.75;;;18.84;100.00
75521;BME280;64102;48.628;9.002;2023-09-18T12:31:14;95636.63;;;19.15;100.00
75521;BME280;64102;48.628;9.002;2023-09-18T12:33:41;95645.34;;;19.93;100.00
75521;BME280;64102;48.628;9.002;2023-09-18T12:36:07;95654.16;;;20.49;96.53
75521;BME280;64102;48.628;9.002;2023-09-18T12:38:33;95654.19;;;19.92;100.00
75521;BME280;64102;48.628;9.002;2023-09-18T12:41:00;95648.53;;;20.08;100.00
75521;BME280;64102;48.628;9.002;2023-09-18T12:43:39;95647.00;;;20.32;97.97
75521;BME280;64102;48.628;9.002;2023-09-18T12:46:05;95644.75;;;19.84;99.79
75521;BME280;64102;48.628;9.002;2023-09-18T12:48:31;95652.28;;;19.67;100.00
75521;BME280;64102;48.628;9.002;2023-09-18T12:51:04;95623.25;;;19.76;98.22
75521;BME280;64102;48.628;9.002;2023-09-18T12:53:29;95630.00;;;19.96;98.20
75521;BME280;64102;48.628;9.002;2023-09-18T12:56:13;95646.84;;;20.20;94.81
75521;BME280;64102;48.628;9.002;2023-09-18T12:58:39;95632.25;;;20.44;93.72
75521;BME280;64102;48.628;9.002;2023-09-18T13:01:06;95618.44;;;20.17;94.07
75521;BME280;64102;48.628;9.002;2023-09-18T13:03:43;95621.00;;;19.79;94.46
75521;BME280;64102;48.628;9.002;2023-09-18T13:06:18;95624.53;;;20.04;94.25
75521;BME280;64102;48.628;9.002;2023-09-18T13:08:44;95605.31;;;19.79;95.05